createdAt,value
2018-07-08T00:00:32.330Z,17.60
2018-07-08T00:03:03.571Z,17.60
2018-07-08T00:05:33.842Z,17.50
2018-07-08T00:10:34.274Z,17.50
2018-07-08T00:13:04.566Z,17.50
2018-07-08T00:15:34.910Z,17.40
2018-07-08T00:18:05.242Z,17.40
2018-07-08T00:20:35.529Z,17.40
2018-07-08T00:23:05.875Z,17.40
2018-07-08T00:25:35.968Z,17.30
2018-07-08T00:28:06.343Z,17.30
2018-07-08T00:30:36.524Z,17.30
2018-07-08T00:33:07.018Z,17.30
2018-07-08T00:35:37.195Z,17.20
2018-07-08T00:38:07.370Z,17.20
2018-07-08T00:40:37.596Z,17.20
2018-07-08T00:43:07.899Z,17.10
2018-07-08T00:45:38.145Z,17.10
2018-07-08T00:48:08.430Z,17.10
2018-07-08T00:50:38.629Z,17.10
2018-07-08T00:53:09.071Z,17.00
2018-07-08T00:55:39.334Z,17.00
2018-07-08T00:58:09.710Z,17.00
2018-07-08T01:00:39.980Z,16.90
2018-07-08T01:03:10.729Z,16.90
2018-07-08T01:05:41.136Z,16.90
2018-07-08T01:08:11.454Z,16.90
2018-07-08T01:10:41.737Z,16.80
2018-07-08T01:13:12.014Z,16.80
2018-07-08T01:15:42.276Z,16.70
2018-07-08T01:18:12.578Z,16.70
2018-07-08T01:20:42.947Z,16.70
2018-07-08T01:23:13.293Z,16.60
2018-07-08T01:25:59.838Z,16.60
2018-07-08T01:28:30.152Z,16.60
2018-07-08T01:31:00.527Z,16.50
2018-07-08T01:33:30.694Z,16.50
2018-07-08T01:36:01.149Z,16.40
2018-07-08T01:38:31.472Z,16.40
2018-07-08T01:41:01.779Z,16.40
2018-07-08T01:43:32.012Z,16.30
2018-07-08T01:46:02.397Z,16.30
2018-07-08T01:48:32.750Z,16.30
2018-07-08T01:51:03.195Z,16.20
2018-07-08T01:53:34.310Z,16.20
2018-07-08T01:56:04.970Z,16.20
2018-07-08T01:58:35.497Z,16.10
2018-07-08T02:01:06.051Z,16.10
2018-07-08T02:03:36.547Z,16.10
2018-07-08T02:06:07.094Z,16.10
2018-07-08T02:08:37.680Z,16.00
2018-07-08T02:13:38.398Z,15.90
2018-07-08T02:16:08.893Z,15.90
2018-07-08T02:18:39.350Z,15.90
2018-07-08T02:21:09.655Z,15.80
2018-07-08T02:23:40.028Z,15.80
2018-07-08T02:26:10.437Z,15.80
2018-07-08T02:28:40.847Z,15.70
2018-07-08T02:31:11.261Z,15.70
2018-07-08T02:33:41.698Z,15.70
2018-07-08T02:36:12.087Z,15.70
2018-07-08T02:38:42.296Z,15.60
2018-07-08T02:41:12.674Z,15.60
2018-07-08T02:43:43.030Z,15.50
2018-07-08T02:46:13.493Z,15.50
2018-07-08T02:48:43.881Z,15.50
2018-07-08T02:51:14.130Z,15.40
2018-07-08T02:53:44.423Z,15.40
2018-07-08T02:56:14.671Z,15.30
2018-07-08T02:58:44.958Z,15.30
2018-07-08T03:01:15.280Z,15.30
2018-07-08T03:03:45.488Z,15.20
2018-07-08T03:06:15.689Z,15.20
2018-07-08T03:08:46.018Z,15.10
2018-07-08T03:11:16.241Z,15.10
2018-07-08T03:13:46.679Z,15.00
2018-07-08T03:16:16.938Z,15.00
2018-07-08T03:18:47.554Z,15.00
2018-07-08T03:21:17.903Z,14.90
2018-07-08T03:23:50.749Z,14.90
2018-07-08T03:26:21.352Z,14.80
2018-07-08T03:28:51.911Z,14.80
2018-07-08T03:31:23.280Z,14.80
2018-07-08T03:33:57.352Z,14.70
2018-07-08T03:36:27.899Z,14.70
2018-07-08T03:38:59.610Z,14.70
2018-07-08T03:41:30.154Z,14.70
2018-07-08T03:44:01.030Z,14.60
2018-07-08T03:46:31.301Z,14.60
2018-07-08T03:49:01.662Z,14.60
2018-07-08T03:51:32.045Z,14.60
2018-07-08T03:54:02.318Z,14.60
2018-07-08T03:56:32.755Z,14.50
2018-07-08T03:59:03.029Z,14.50
2018-07-08T04:01:34.767Z,14.50
2018-07-08T04:04:06.621Z,14.50
2018-07-08T04:06:37.356Z,14.50
2018-07-08T04:09:08.936Z,14.50
2018-07-08T04:11:39.342Z,14.50
2018-07-08T04:14:09.585Z,14.40
2018-07-08T04:16:39.938Z,14.40
2018-07-08T04:19:10.250Z,14.40
2018-07-08T04:21:40.564Z,14.40
2018-07-08T04:24:11.056Z,14.40
2018-07-08T04:26:41.500Z,14.40
2018-07-08T04:31:50.061Z,14.50
2018-07-08T04:34:20.407Z,14.50
2018-07-08T04:36:50.673Z,14.50
2018-07-08T04:39:21.096Z,14.50
2018-07-08T04:41:51.354Z,14.60
2018-07-08T04:44:21.562Z,14.60
2018-07-08T04:46:52.277Z,14.60
2018-07-08T04:49:22.559Z,14.60
2018-07-08T04:51:53.290Z,14.60
2018-07-08T04:54:23.505Z,14.60
2018-07-08T04:56:53.914Z,14.60
2018-07-08T04:59:25.598Z,14.70
2018-07-08T05:01:55.902Z,14.70
2018-07-08T05:04:26.058Z,14.70
2018-07-08T05:06:56.268Z,14.80
2018-07-08T05:09:26.470Z,14.80
2018-07-08T05:11:57.437Z,14.90
2018-07-08T05:14:27.676Z,14.90
2018-07-08T05:16:59.060Z,15.00
2018-07-08T05:19:30.199Z,15.00
2018-07-08T05:22:00.448Z,15.10
2018-07-08T05:24:34.076Z,15.10
2018-07-08T05:27:04.533Z,15.20
2018-07-08T05:29:34.707Z,15.20
2018-07-08T05:32:05.642Z,15.30
2018-07-08T05:34:36.674Z,15.30
2018-07-08T05:37:07.820Z,15.40
2018-07-08T05:39:38.781Z,15.50
2018-07-08T05:42:09.645Z,15.50
2018-07-08T05:44:39.839Z,15.70
2018-07-08T05:47:10.721Z,15.80
2018-07-08T05:49:41.179Z,15.90
2018-07-08T05:52:11.459Z,16.10
2018-07-08T05:54:41.754Z,16.30
2018-07-08T05:57:12.000Z,16.50
2018-07-08T05:59:42.191Z,16.70
2018-07-08T06:02:12.491Z,16.90
2018-07-08T06:04:42.850Z,17.10
2018-07-08T06:07:13.025Z,17.30
2018-07-08T06:09:43.294Z,17.50
2018-07-08T06:12:13.485Z,17.70
2018-07-08T06:14:43.689Z,17.80
2018-07-08T06:17:14.081Z,18.00
2018-07-08T06:19:44.432Z,18.20
2018-07-08T06:22:14.622Z,18.40
2018-07-08T06:24:44.833Z,18.50
2018-07-08T06:27:15.059Z,18.70
2018-07-08T06:29:45.390Z,18.80
2018-07-08T06:32:15.644Z,18.90
2018-07-08T06:34:45.754Z,19.00
2018-07-08T06:37:16.004Z,19.10
2018-07-08T06:39:46.347Z,19.20
2018-07-08T06:42:16.508Z,19.30
2018-07-08T06:44:46.742Z,19.40
2018-07-08T06:47:16.959Z,19.40
2018-07-08T06:49:47.233Z,19.50
2018-07-08T06:52:17.404Z,19.50
2018-07-08T06:54:47.588Z,19.40
2018-07-08T06:57:17.753Z,19.40
2018-07-08T06:59:47.916Z,19.40
2018-07-08T07:02:18.134Z,19.40
2018-07-08T07:04:48.354Z,19.50
2018-07-08T07:07:18.515Z,19.50
2018-07-08T07:09:48.706Z,19.50
2018-07-08T07:12:18.976Z,19.50
2018-07-08T07:14:49.148Z,19.60
2018-07-08T07:17:19.304Z,19.60
2018-07-08T07:19:49.503Z,19.70
2018-07-08T07:22:19.682Z,19.80
2018-07-08T07:24:49.890Z,19.90
2018-07-08T07:27:20.131Z,20.00
2018-07-08T07:29:50.754Z,20.10
2018-07-08T07:32:21.032Z,20.20
2018-07-08T07:34:51.247Z,20.20
2018-07-08T07:39:51.149Z,20.30
2018-07-08T07:42:21.365Z,20.30
2018-07-08T07:44:51.500Z,20.30
2018-07-08T07:47:21.691Z,20.40
2018-07-08T07:49:51.914Z,20.50
2018-07-08T07:52:22.165Z,20.50
2018-07-08T07:54:52.393Z,20.50
2018-07-08T07:57:22.570Z,20.50
2018-07-08T07:59:52.831Z,20.60
2018-07-08T08:02:23.082Z,20.60
2018-07-08T08:04:53.339Z,20.70
2018-07-08T08:07:23.528Z,20.80
2018-07-08T08:09:53.873Z,20.80
2018-07-08T08:12:24.140Z,20.90
2018-07-08T08:14:54.362Z,21.00
2018-07-08T08:17:24.651Z,21.10
2018-07-08T08:19:54.856Z,21.20
2018-07-08T08:22:25.096Z,21.30
2018-07-08T08:24:55.359Z,21.40
2018-07-08T08:27:25.726Z,21.50
2018-07-08T08:29:56.309Z,21.60
2018-07-08T08:32:26.548Z,21.60
2018-07-08T08:34:59.968Z,21.70
2018-07-08T08:37:31.911Z,21.80
2018-07-08T08:40:02.378Z,21.80
2018-07-08T08:42:32.576Z,21.80
2018-07-08T08:45:03.216Z,21.80
2018-07-08T08:47:33.879Z,21.90
2018-07-08T08:50:04.290Z,22.00
2018-07-08T08:52:34.680Z,22.10
2018-07-08T08:55:05.185Z,22.20
2018-07-08T08:57:35.446Z,22.30
2018-07-08T09:00:10.196Z,22.40
2018-07-08T09:02:40.543Z,22.50
2018-07-08T09:05:10.849Z,22.60
2018-07-08T09:07:41.172Z,22.60
2018-07-08T09:10:11.409Z,22.60
2018-07-08T09:12:41.770Z,22.70
2018-07-08T09:15:12.048Z,22.70
2018-07-08T09:17:42.285Z,22.70
2018-07-08T09:20:12.624Z,22.80
2018-07-08T09:22:43.067Z,22.80
2018-07-08T09:25:13.291Z,22.90
2018-07-08T09:27:43.541Z,23.00
2018-07-08T09:30:13.677Z,23.00
2018-07-08T09:32:43.911Z,23.20
2018-07-08T09:35:14.138Z,23.20
2018-07-08T09:37:44.322Z,23.20
2018-07-08T09:40:14.586Z,23.30
2018-07-08T09:42:45.265Z,23.50
2018-07-08T09:45:21.634Z,23.60
2018-07-08T09:47:52.249Z,23.60
2018-07-08T09:50:23.005Z,23.70
2018-07-08T09:52:53.197Z,23.80
2018-07-08T09:55:23.372Z,23.80
2018-07-08T09:57:53.587Z,23.80
2018-07-08T10:00:23.898Z,23.90
2018-07-08T10:02:54.377Z,24.00
2018-07-08T10:05:24.739Z,24.10
2018-07-08T10:07:54.967Z,24.20
2018-07-08T10:10:25.252Z,24.30
2018-07-08T10:12:55.475Z,24.40
2018-07-08T10:15:25.772Z,24.40
2018-07-08T10:17:56.152Z,24.50
2018-07-08T10:20:26.630Z,24.60
2018-07-08T10:22:57.429Z,24.60
2018-07-08T10:25:27.784Z,24.60
2018-07-08T10:28:14.140Z,24.70
2018-07-08T10:30:44.736Z,24.60
2018-07-08T10:33:15.006Z,24.70
2018-07-08T10:35:57.732Z,24.80
2018-07-08T10:38:28.067Z,24.70
2018-07-08T10:40:58.353Z,24.80
2018-07-08T10:43:28.721Z,24.80
2018-07-08T10:45:59.008Z,24.90
2018-07-08T10:48:29.364Z,24.90
2018-07-08T10:50:59.697Z,24.90
2018-07-08T10:53:29.886Z,24.90
2018-07-08T10:56:00.105Z,25.00
2018-07-08T10:58:30.237Z,25.10
2018-07-08T11:01:01.517Z,25.10
2018-07-08T11:03:33.212Z,25.20
2018-07-08T11:06:03.451Z,25.20
2018-07-08T11:08:33.722Z,25.30
2018-07-08T11:11:03.903Z,25.40
2018-07-08T11:13:34.108Z,25.40
2018-07-08T11:16:04.355Z,25.40
2018-07-08T11:18:34.592Z,25.40
2018-07-08T11:21:05.295Z,25.50
2018-07-08T11:23:35.546Z,25.50
2018-07-08T11:26:07.090Z,25.50
2018-07-08T11:28:37.485Z,25.50
2018-07-08T11:31:07.817Z,25.60
2018-07-08T11:33:38.450Z,25.60
2018-07-08T11:36:08.720Z,25.70
2018-07-08T11:38:38.980Z,25.80
2018-07-08T11:41:10.140Z,25.80
2018-07-08T11:43:40.549Z,25.80
2018-07-08T11:46:10.901Z,25.90
2018-07-08T11:48:41.251Z,25.90
2018-07-08T11:51:11.552Z,26.00
2018-07-08T11:53:41.853Z,26.10
2018-07-08T11:56:12.130Z,26.20
2018-07-08T11:58:42.365Z,26.20
2018-07-08T12:01:12.618Z,26.20
2018-07-08T12:03:42.797Z,26.30
2018-07-08T12:06:12.995Z,26.30
2018-07-08T12:08:43.348Z,26.30
2018-07-08T12:11:13.598Z,26.30
2018-07-08T12:13:43.813Z,26.40
2018-07-08T12:16:14.258Z,26.50
2018-07-08T12:18:44.471Z,26.60
2018-07-08T12:21:14.807Z,26.70
2018-07-08T12:23:45.075Z,26.80
2018-07-08T12:26:15.350Z,26.90
2018-07-08T12:28:45.554Z,27.00
2018-07-08T12:31:15.789Z,27.00
2018-07-08T12:33:46.129Z,27.00
2018-07-08T12:36:16.362Z,27.00
2018-07-08T12:38:46.631Z,27.00
2018-07-08T12:41:16.957Z,27.00
2018-07-08T12:43:47.162Z,27.00
2018-07-08T12:46:17.411Z,27.00
2018-07-08T12:48:48.096Z,27.10
2018-07-08T12:51:18.434Z,27.10
2018-07-08T12:53:48.692Z,27.10
2018-07-08T12:56:18.955Z,27.10
2018-07-08T12:58:49.296Z,27.20
2018-07-08T13:01:19.630Z,27.20
2018-07-08T13:03:49.907Z,27.30
2018-07-08T13:06:20.210Z,27.40
2018-07-08T13:08:50.871Z,27.40
2018-07-08T13:11:21.034Z,27.50
2018-07-08T13:13:51.422Z,27.50
2018-07-08T13:16:21.749Z,27.50
2018-07-08T13:19:21.420Z,27.50
2018-07-08T13:21:51.681Z,27.50
2018-07-08T13:24:24.478Z,27.40
2018-07-08T13:29:59.489Z,27.50
2018-07-08T13:32:30.263Z,27.50
2018-07-08T13:35:00.617Z,27.50
2018-07-08T13:37:30.921Z,27.60
2018-07-08T13:40:01.339Z,27.60
2018-07-08T13:42:31.736Z,27.60
2018-07-08T13:45:02.152Z,27.70
2018-07-08T13:47:32.444Z,27.70
2018-07-08T13:50:02.829Z,27.80
2018-07-08T13:52:45.550Z,27.80
2018-07-08T13:55:15.930Z,27.80
2018-07-08T13:57:46.407Z,27.90
2018-07-08T14:00:16.770Z,27.80
2018-07-08T14:02:47.113Z,27.80
2018-07-08T14:05:17.421Z,27.80
2018-07-08T14:07:48.013Z,27.90
2018-07-08T14:10:18.294Z,27.90
2018-07-08T14:12:51.277Z,27.90
2018-07-08T14:15:23.050Z,27.90
2018-07-08T14:17:53.827Z,28.00
2018-07-08T14:20:24.940Z,28.00
2018-07-08T14:22:55.356Z,28.10
2018-07-08T14:25:25.790Z,28.10
2018-07-08T14:27:56.435Z,28.10
2018-07-08T14:30:26.758Z,28.20
2018-07-08T14:32:57.070Z,28.20
2018-07-08T14:35:27.355Z,28.20
2018-07-08T14:37:57.639Z,28.20
2018-07-08T14:40:28.000Z,28.20
2018-07-08T14:42:58.270Z,28.30
2018-07-08T14:45:28.541Z,28.30
2018-07-08T14:47:58.948Z,28.30
2018-07-08T14:50:30.215Z,28.40
2018-07-08T14:53:00.597Z,28.40
2018-07-08T14:55:30.986Z,28.30
2018-07-08T14:58:01.305Z,28.30
2018-07-08T15:00:31.608Z,28.30
2018-07-08T15:03:02.002Z,28.20
2018-07-08T15:05:32.456Z,28.20
2018-07-08T15:08:02.969Z,28.30
2018-07-08T15:10:33.426Z,28.20
2018-07-08T15:13:03.778Z,28.30
2018-07-08T15:15:34.656Z,28.30
2018-07-08T15:18:05.085Z,28.40
2018-07-08T15:20:35.473Z,28.40
2018-07-08T15:23:16.192Z,28.50
2018-07-08T15:25:46.551Z,28.50
2018-07-08T15:28:16.909Z,28.40
2018-07-08T15:30:47.222Z,28.40
2018-07-08T15:33:17.558Z,28.40
2018-07-08T15:35:47.844Z,28.40
2018-07-08T15:40:48.547Z,28.40
2018-07-08T15:43:18.756Z,28.50
2018-07-08T15:50:48.494Z,28.60
2018-07-08T15:53:18.772Z,28.60
2018-07-08T15:55:49.077Z,28.60
2018-07-08T15:58:19.321Z,28.60
2018-07-08T16:00:49.671Z,28.60
2018-07-08T16:03:20.127Z,28.70
2018-07-08T16:05:54.347Z,28.80
2018-07-08T16:08:25.155Z,28.80
2018-07-08T16:10:55.671Z,28.80
2018-07-08T16:13:26.703Z,28.80
2018-07-08T16:15:57.418Z,28.70
2018-07-08T16:18:27.986Z,28.70
2018-07-08T16:20:58.236Z,28.70
2018-07-08T16:23:29.233Z,28.60
2018-07-08T16:25:59.687Z,28.70
2018-07-08T16:28:29.992Z,28.70
2018-07-08T16:31:00.859Z,28.80
2018-07-08T16:33:31.343Z,28.80
2018-07-08T16:36:01.760Z,28.90
2018-07-08T16:38:32.058Z,28.90
2018-07-08T16:41:02.415Z,28.90
2018-07-08T16:43:32.692Z,29.00
2018-07-08T16:46:03.141Z,29.00
2018-07-08T16:48:33.567Z,29.00
2018-07-08T16:51:04.009Z,29.00
2018-07-08T16:53:34.286Z,29.00
2018-07-08T16:56:04.559Z,28.90
2018-07-08T16:58:34.877Z,28.90
2018-07-08T17:01:05.258Z,28.80
2018-07-08T17:03:35.688Z,28.70
2018-07-08T17:06:06.136Z,28.70
2018-07-08T17:08:36.520Z,28.60
2018-07-08T17:11:06.879Z,28.60
2018-07-08T17:13:38.413Z,28.50
2018-07-08T17:16:08.806Z,28.40
2018-07-08T17:18:39.261Z,28.40
2018-07-08T17:21:09.615Z,28.30
2018-07-08T17:23:40.135Z,28.10
2018-07-08T17:26:10.618Z,28.00
2018-07-08T17:28:41.045Z,28.00
2018-07-08T17:31:11.426Z,27.90
2018-07-08T17:33:41.946Z,27.90
2018-07-08T17:36:12.295Z,27.80
2018-07-08T17:38:44.441Z,27.70
2018-07-08T17:41:15.187Z,27.70
2018-07-08T17:43:46.936Z,27.60
2018-07-08T17:46:18.016Z,27.50
2018-07-08T17:48:48.555Z,27.50
2018-07-08T17:51:29.434Z,27.40
2018-07-08T17:54:20.940Z,27.40
2018-07-08T17:56:59.109Z,27.30
2018-07-08T17:59:30.145Z,27.20
2018-07-08T18:02:00.505Z,27.20
2018-07-08T18:05:02.840Z,27.10
2018-07-08T18:07:33.329Z,27.00
2018-07-08T18:10:03.913Z,26.90
2018-07-08T18:12:34.424Z,26.80
2018-07-08T18:15:09.757Z,26.80
2018-07-08T18:17:41.744Z,26.70
2018-07-08T18:20:17.034Z,26.70
2018-07-08T18:22:52.127Z,26.60
2018-07-08T18:25:50.316Z,26.60
2018-07-08T18:28:21.756Z,26.50
2018-07-08T18:30:54.799Z,26.40
2018-07-08T18:35:56.657Z,26.30
2018-07-08T18:38:26.994Z,26.20
2018-07-08T18:40:59.198Z,26.10
2018-07-08T18:43:29.477Z,26.00
2018-07-08T18:46:02.882Z,25.90
2018-07-08T18:48:33.292Z,25.90
2018-07-08T18:53:33.617Z,25.70
2018-07-08T18:56:03.964Z,25.70
2018-07-08T18:58:34.558Z,25.60
2018-07-08T19:01:04.875Z,25.60
2018-07-08T19:03:35.221Z,25.50
2018-07-08T19:06:05.695Z,25.50
2018-07-08T19:11:05.910Z,25.30
2018-07-08T19:13:36.231Z,25.30
2018-07-08T19:16:08.208Z,25.20
2018-07-08T19:18:38.550Z,25.10
2018-07-08T19:21:09.085Z,25.10
2018-07-08T19:23:39.360Z,25.00
2018-07-08T19:26:09.608Z,25.00
2018-07-08T19:28:40.071Z,24.90
2018-07-08T19:31:10.555Z,24.90
2018-07-08T19:33:41.056Z,24.80
2018-07-08T19:36:18.560Z,24.80
2018-07-08T19:38:48.941Z,24.70
2018-07-08T19:41:19.322Z,24.70
2018-07-08T19:43:49.686Z,24.60
2018-07-08T19:46:20.095Z,24.60
2018-07-08T19:48:50.627Z,24.50
2018-07-08T19:51:21.171Z,24.40
2018-07-08T19:56:21.351Z,24.30
2018-07-08T19:58:51.777Z,24.20
2018-07-08T20:01:24.739Z,24.20
2018-07-08T20:03:55.988Z,24.10
2018-07-08T20:06:26.271Z,24.00
2018-07-08T20:08:56.527Z,24.00
2018-07-08T20:11:26.892Z,23.90
2018-07-08T20:13:57.154Z,23.80
2018-07-08T20:16:27.567Z,23.80
2018-07-08T20:18:59.521Z,23.70
2018-07-08T20:21:29.947Z,23.60
2018-07-08T20:24:00.476Z,23.50
2018-07-08T20:26:30.840Z,23.50
2018-07-08T20:29:01.133Z,23.40
2018-07-08T20:31:31.509Z,23.30
2018-07-08T20:34:01.848Z,23.20
2018-07-08T20:36:32.083Z,23.20
2018-07-08T20:39:02.701Z,23.10
2018-07-08T20:41:33.022Z,23.00
2018-07-08T20:44:03.681Z,23.00
2018-07-08T20:46:33.955Z,22.90
2018-07-08T20:51:33.966Z,22.80
2018-07-08T20:54:04.435Z,22.70
2018-07-08T20:56:34.880Z,22.60
2018-07-08T20:59:05.233Z,22.60
2018-07-08T21:01:35.606Z,22.50
2018-07-08T21:04:06.189Z,22.50
2018-07-08T21:06:36.505Z,22.40
2018-07-08T21:09:07.112Z,22.30
2018-07-08T21:11:37.587Z,22.30
2018-07-08T21:14:07.909Z,22.20
2018-07-08T21:16:38.151Z,22.10
2018-07-08T21:19:08.525Z,22.00
2018-07-08T21:21:39.314Z,22.00
2018-07-08T21:24:09.574Z,21.90
2018-07-08T21:26:39.999Z,21.80
2018-07-08T21:29:10.356Z,21.70
2018-07-08T21:31:41.314Z,21.70
2018-07-08T21:34:11.672Z,21.60
2018-07-08T21:36:42.674Z,21.50
2018-07-08T21:39:13.051Z,21.50
2018-07-08T21:41:43.475Z,21.40
2018-07-08T21:44:13.851Z,21.40
2018-07-08T21:46:44.166Z,21.30
2018-07-08T21:49:14.453Z,21.30
2018-07-08T21:51:44.835Z,21.20
2018-07-08T21:54:15.090Z,21.10
2018-07-08T21:56:45.441Z,21.10
2018-07-08T21:59:15.800Z,21.10
2018-07-08T22:04:40.767Z,20.90
2018-07-08T22:07:16.252Z,20.80
2018-07-08T22:09:46.590Z,20.80
2018-07-08T22:12:17.015Z,20.70
2018-07-08T22:14:47.414Z,20.70
2018-07-08T22:17:17.950Z,20.70
2018-07-08T22:19:48.371Z,20.60
2018-07-08T22:22:18.644Z,20.50
2018-07-08T22:24:48.884Z,20.50
2018-07-08T22:27:19.267Z,20.40
2018-07-08T22:29:49.568Z,20.40
2018-07-08T22:32:19.935Z,20.30
2018-07-08T22:34:50.330Z,20.30
2018-07-08T22:37:20.687Z,20.20
2018-07-08T22:39:51.017Z,20.20
2018-07-08T22:42:21.396Z,20.10
2018-07-08T22:44:51.744Z,20.10
2018-07-08T22:47:22.079Z,20.00
2018-07-08T22:49:52.449Z,19.90
2018-07-08T22:52:22.714Z,19.90
2018-07-08T22:54:53.198Z,19.80
2018-07-08T22:57:23.570Z,19.80
2018-07-08T23:01:11.859Z,19.80
2018-07-08T23:03:47.050Z,19.70
2018-07-08T23:06:18.832Z,19.70
2018-07-08T23:08:49.932Z,19.60
2018-07-08T23:11:21.140Z,19.60
2018-07-08T23:13:52.468Z,19.50
2018-07-08T23:16:23.333Z,19.40
2018-07-08T23:18:53.710Z,19.40
2018-07-08T23:21:23.960Z,19.40
2018-07-08T23:23:54.278Z,19.40
2018-07-08T23:26:24.515Z,19.30
2018-07-08T23:28:54.971Z,19.20
2018-07-08T23:31:25.210Z,19.20
2018-07-08T23:33:55.511Z,19.20
2018-07-08T23:36:25.830Z,19.20
2018-07-08T23:38:56.027Z,19.10
2018-07-08T23:41:26.342Z,19.10
2018-07-08T23:43:56.597Z,19.10
2018-07-08T23:46:26.986Z,19.00
2018-07-08T23:48:57.273Z,19.00
2018-07-08T23:51:27.512Z,18.90
2018-07-08T23:53:57.847Z,18.90
2018-07-08T23:56:28.110Z,18.80
2018-07-08T23:58:58.475Z,18.80
